Time;durP1;ratioP1;P1;durP2;ratioP2;P2;SDS_P1;SDS_P2;PMS_P1;PMS_P2;Temp;Humidity;BMP_temperature;BMP_pressure;BME280_temperature;BME280_humidity;BME280_pressure;Samples;Min_cycle;Max_cycle;Signal;HPM_P1;HPM_P2
2023/05/09 00:01:26;;;;;;;6.17;5.53;;;17.20;99.90;;;17.50;nan;100895.13;4994836;28;20867;-67
2023/05/09 00:03:53;;;;;;;6.30;4.97;;;17.20;99.90;;;17.47;nan;100900.66;4997639;28;20635;-67
2023/05/09 00:06:20;;;;;;;7.30;5.27;;;17.20;99.90;;;17.47;nan;100900.66;4989211;28;20665;-67
2023/05/09 00:08:47;;;;;;;6.37;5.40;;;17.10;99.90;;;17.43;nan;100894.00;4989699;28;20638;-67
2023/05/09 00:11:14;;;;;;;6.50;5.17;;;17.10;99.90;;;17.40;nan;100889.03;4990205;28;20627;-68
2023/05/09 00:13:42;;;;;;;5.13;4.60;;;17.10;99.90;;;17.39;nan;100899.72;4991254;28;20638;-67
2023/05/09 00:16:10;;;;;;;5.93;4.77;;;17.10;99.90;;;17.36;nan;100881.53;4991956;28;20696;-67
2023/05/09 00:18:41;;;;;;;7.73;5.00;;;17.00;99.90;;;17.32;nan;100883.66;4992663;28;21260;-68
2023/05/09 00:21:09;;;;;;;5.53;4.90;;;17.10;99.90;;;17.31;nan;100881.19;4993033;28;20688;-67
2023/05/09 00:23:37;;;;;;;6.77;5.40;;;17.00;99.90;;;17.27;nan;100883.25;4992980;28;20642;-67
2023/05/09 00:26:04;;;;;;;7.20;5.57;;;17.00;99.90;;;17.24;nan;100882.72;4995111;28;20662;-68
2023/05/09 00:28:32;;;;;;;7.27;4.60;;;16.90;99.90;;;17.20;nan;100879.56;4971478;28;20654;-68
2023/05/09 00:30:59;;;;;;;6.33;4.60;;;16.90;99.90;;;17.15;nan;100881.81;4985769;28;21019;-67
2023/05/09 00:33:25;;;;;;;6.20;4.87;;;16.90;99.90;;;17.11;nan;100884.88;4995071;28;20711;-68
2023/05/09 00:35:53;;;;;;;6.80;4.60;;;16.80;99.90;;;17.07;nan;100881.72;4997298;28;20634;-68
2023/05/09 00:38:22;;;;;;;5.30;4.80;;;16.80;99.90;;;17.04;nan;100876.72;4990997;28;20746;-68
2023/05/09 00:40:49;;;;;;;5.97;5.17;;;16.70;99.90;;;17.02;nan;100874.22;4993343;28;21276;-67
2023/05/09 00:43:16;;;;;;;7.23;5.63;;;16.70;99.90;;;17.00;nan;100872.72;5001875;28;20668;-67
2023/05/09 00:45:44;;;;;;;6.10;4.80;;;16.70;99.90;;;16.98;nan;100872.88;4995201;28;20733;-66
2023/05/09 00:48:11;;;;;;;5.83;4.70;;;16.70;99.90;;;16.99;nan;100866.59;4993147;28;21245;-67
2023/05/09 00:50:39;;;;;;;7.20;5.50;;;16.70;99.90;;;16.98;nan;100859.69;4992010;28;20622;-68
2023/05/09 00:53:06;;;;;;;6.00;5.23;;;16.70;99.90;;;16.99;nan;100863.16;4992722;28;21049;-68
2023/05/09 00:55:33;;;;;;;6.43;5.37;;;16.70;99.90;;;17.01;nan;100859.38;4993563;28;20679;-68
2023/05/09 00:58:01;;;;;;;6.90;5.13;;;16.70;99.90;;;17.00;nan;100860.38;4979240;28;20671;-67
2023/05/09 01:00:28;;;;;;;6.60;4.80;;;16.70;99.90;;;17.00;nan;100863.00;4980975;28;20684;-67
2023/05/09 01:02:56;;;;;;;5.47;4.43;;;16.70;99.90;;;16.90;nan;100854.31;4990045;28;20699;-68
2023/05/09 01:05:30;;;;;;;5.87;4.50;;;16.60;99.90;;;16.83;nan;100855.88;4991612;28;21416;-68
2023/05/09 01:08:58;;;;;;;6.50;5.80;;;16.60;99.90;;;16.73;nan;100846.34;4984565;28;21042;-67
2023/05/09 01:11:50;;;;;;;8.07;5.67;;;16.50;99.90;;;16.69;nan;100840.53;4962254;28;20704;-69
2023/05/09 01:14:38;;;;;;;6.77;5.10;;;16.40;99.90;;;16.68;nan;100840.66;4983549;28;21019;-68
2023/05/09 01:17:19;;;;;;;5.47;4.60;;;16.40;99.90;;;16.64;nan;100837.50;4988177;28;20662;-66
2023/05/09 01:19:55;;;;;;;7.87;5.23;;;16.40;99.90;;;16.57;nan;100832.97;4971899;28;20696;-67
2023/05/09 01:22:30;;;;;;;6.60;5.33;;;16.30;99.90;;;16.53;nan;100829.75;4973091;28;20635;-66
2023/05/09 01:25:11;;;;;;;5.77;5.00;;;16.30;99.90;;;16.52;nan;100827.28;4992187;28;20684;-67
2023/05/09 01:28:08;;;;;;;6.77;4.77;;;16.30;99.90;;;16.46;nan;100818.09;4991106;28;20638;-66
2023/05/09 01:30:37;;;;;;;6.20;4.93;;;16.20;99.90;;;16.42;nan;100824.63;4994211;28;20621;-67
2023/05/09 01:33:07;;;;;;;6.00;5.20;;;16.20;99.90;;;16.38;nan;100825.03;4997767;28;20689;-67
2023/05/09 01:35:38;;;;;;;7.53;4.50;;;16.20;99.90;;;16.35;nan;100828.81;5004276;28;20629;-66
2023/05/09 01:38:18;;;;;;;9.90;5.20;;;16.10;99.90;;;16.32;nan;100829.09;4992528;28;20677;-67
2023/05/09 01:40:52;;;;;;;5.90;4.67;;;16.00;99.90;;;16.29;nan;100824.13;4985617;28;20762;-67
2023/05/09 01:43:21;;;;;;;9.00;6.13;;;16.00;99.90;;;16.23;nan;100816.78;4991504;28;21194;-67
2023/05/09 01:45:50;;;;;;;7.63;5.03;;;16.00;99.90;;;16.23;nan;100822.03;4992435;28;20654;-67
2023/05/09 01:48:17;;;;;;;6.60;5.27;;;15.90;99.90;;;16.22;nan;100817.75;4979522;28;20659;-67
2023/05/09 01:50:45;;;;;;;6.50;4.80;;;16.00;99.90;;;16.16;nan;100818.34;4991499;28;20629;-66
2023/05/09 01:53:14;;;;;;;5.83;4.97;;;15.90;99.90;;;16.14;nan;100822.91;4989313;28;21055;-67
2023/05/09 01:55:42;;;;;;;7.10;5.40;;;15.90;99.90;;;16.10;nan;100814.44;4982569;28;20646;-66
2023/05/09 01:58:11;;;;;;;6.97;5.23;;;15.90;99.90;;;16.09;nan;100817.22;4990559;28;21076;-66
2023/05/09 02:00:38;;;;;;;6.17;4.53;;;15.80;99.90;;;16.07;nan;100806.00;4990418;28;20673;-66
2023/05/09 02:03:05;;;;;;;8.10;5.47;;;15.80;99.90;;;15.99;nan;100813.78;4988358;28;20664;-67
2023/05/09 02:05:33;;;;;;;10.10;5.90;;;15.80;99.90;;;15.94;nan;100816.84;4984025;28;21241;-67
2023/05/09 02:08:00;;;;;;;8.87;4.90;;;15.70;99.90;;;15.94;nan;100816.84;4973938;28;20671;-66
2023/05/09 02:10:28;;;;;;;7.93;4.80;;;15.70;99.90;;;15.90;nan;100811.97;4982305;28;21115;-67
2023/05/09 02:12:58;;;;;;;8.07;5.00;;;15.60;99.90;;;15.86;nan;100811.44;4976368;28;21261;-66
2023/05/09 02:15:25;;;;;;;8.77;5.30;;;15.60;99.90;;;15.84;nan;100809.91;4985391;28;20643;-66
2023/05/09 02:17:52;;;;;;;7.37;5.27;;;15.60;99.90;;;15.83;nan;100809.06;4976950;28;20662;-68
2023/05/09 02:20:19;;;;;;;7.27;5.20;;;15.60;99.90;;;15.86;nan;100813.25;4983119;28;20627;-67
2023/05/09 02:22:47;;;;;;;8.20;5.13;;;15.60;99.90;;;15.85;nan;100806.28;4979280;28;20650;-66
2023/05/09 02:25:14;;;;;;;7.90;5.40;;;15.60;99.90;;;15.85;nan;100817.66;4991673;28;20662;-67
2023/05/09 02:27:46;;;;;;;7.00;5.03;;;15.60;99.90;;;15.81;nan;100813.66;4990544;28;20670;-66
2023/05/09 02:30:23;;;;;;;8.30;5.23;;;15.60;99.90;;;15.81;nan;100811.03;4990251;28;20631;-66
2023/05/09 02:32:57;;;;;;;6.47;4.57;;;15.60;99.90;;;15.81;nan;100821.53;4977392;28;20630;-68
2023/05/09 02:35:27;;;;;;;11.60;6.10;;;15.60;99.90;;;15.79;nan;100814.75;4989874;28;21443;-65
2023/05/09 02:38:05;;;;;;;8.40;5.50;;;15.50;99.90;;;15.80;nan;100808.53;4989610;28;21487;-67
2023/05/09 02:40:33;;;;;;;10.90;6.30;;;15.60;99.90;;;15.78;nan;100800.75;4989382;28;20638;-65
2023/05/09 02:43:00;;;;;;;7.53;4.50;;;15.60;99.90;;;15.75;nan;100795.78;4985130;28;21166;-67
2023/05/09 02:45:27;;;;;;;9.03;6.23;;;15.50;99.90;;;15.76;nan;100801.91;4984290;28;20662;-66
2023/05/09 02:47:54;;;;;;;8.47;5.67;;;15.50;99.90;;;15.70;nan;100803.25;4989437;28;20662;-67
2023/05/09 02:50:21;;;;;;;8.10;5.97;;;15.50;99.90;;;15.69;nan;100790.25;4990713;28;20725;-67
2023/05/09 02:52:48;;;;;;;6.40;5.10;;;15.40;99.90;;;15.67;nan;100797.47;4990293;28;20692;-67
2023/05/09 02:55:15;;;;;;;9.20;6.20;;;15.40;99.90;;;15.65;nan;100799.41;4991375;28;20642;-66
2023/05/09 02:57:42;;;;;;;8.23;5.40;;;15.40;99.90;;;15.63;nan;100796.06;4988686;28;20666;-68
2023/05/09 03:00:10;;;;;;;7.90;5.77;;;15.40;99.90;;;15.61;nan;100793.56;4977220;28;20635;-67
2023/05/09 03:02:38;;;;;;;7.73;5.50;;;15.40;99.90;;;15.60;nan;100791.09;4990496;28;20651;-68
2023/05/09 03:05:05;;;;;;;9.73;5.83;;;15.30;99.90;;;15.61;nan;100792.75;4980546;28;20657;-67
2023/05/09 03:07:33;;;;;;;7.37;5.30;;;15.40;99.90;;;15.63;nan;100790.81;4979360;28;20670;-68
2023/05/09 03:10:00;;;;;;;8.10;5.53;;;15.40;99.90;;;15.63;nan;100791.63;4990269;28;21409;-68
2023/05/09 03:12:26;;;;;;;8.87;5.53;;;15.40;99.90;;;15.65;nan;100784.44;4991547;28;20639;-66
2023/05/09 03:14:53;;;;;;;6.07;4.80;;;15.40;99.90;;;15.62;nan;100792.59;4989763;28;20627;-67
2023/05/09 03:17:22;;;;;;;7.97;5.30;;;15.40;99.90;;;15.63;nan;100775.84;4990644;28;20709;-67
2023/05/09 03:19:49;;;;;;;6.67;4.80;;;15.40;99.90;;;15.65;nan;100784.44;4991052;28;20993;-68
2023/05/09 03:22:15;;;;;;;7.80;5.30;;;15.40;99.90;;;15.64;nan;100771.41;4988074;28;20633;-68
2023/05/09 03:24:42;;;;;;;9.77;5.83;;;15.40;99.90;;;15.66;nan;100770.31;4990829;28;20668;-67
2023/05/09 03:27:10;;;;;;;7.90;5.60;;;15.40;99.90;;;15.70;nan;100773.50;4991257;28;20665;-67
2023/05/09 03:29:37;;;;;;;5.87;4.70;;;15.40;99.90;;;15.71;nan;100767.28;4990983;28;20685;-68
2023/05/09 03:32:06;;;;;;;9.17;6.00;;;15.50;99.90;;;15.72;nan;100764.50;4973656;28;20630;-68
2023/05/09 03:34:33;;;;;;;7.07;5.40;;;15.50;99.90;;;15.75;nan;100769.50;4989406;28;21003;-67
2023/05/09 03:37:00;;;;;;;8.13;5.60;;;15.50;99.90;;;15.75;nan;100768.66;4990008;28;20666;-68
2023/05/09 03:39:27;;;;;;;8.07;5.77;;;15.50;99.90;;;15.72;nan;100767.13;4991262;28;21279;-66
2023/05/09 03:41:55;;;;;;;7.77;5.27;;;15.50;99.90;;;15.76;nan;100772.97;4976789;28;20635;-67
2023/05/09 03:44:22;;;;;;;6.50;5.23;;;15.50;99.90;;;15.79;nan;100770.03;4980791;28;20637;-67
2023/05/09 03:46:49;;;;;;;5.83;4.30;;;15.50;99.90;;;15.80;nan;100769.06;4990937;28;20681;-67
2023/05/09 03:49:16;;;;;;;9.10;6.03;;;15.50;99.90;;;15.83;nan;100761.72;4989334;28;20631;-67
2023/05/09 03:51:43;;;;;;;7.83;5.60;;;15.60;99.90;;;15.87;nan;100760.47;4993167;28;20634;-67
2023/05/09 03:54:10;;;;;;;8.37;6.00;;;15.60;99.90;;;15.89;nan;100744.53;4994803;28;20631;-67
2023/05/09 03:56:37;;;;;;;7.60;5.10;;;15.60;99.90;;;15.92;nan;100755.63;4992114;28;20665;-67
2023/05/09 03:59:04;;;;;;;8.67;6.40;;;15.60;99.90;;;15.93;nan;100756.47;4994173;28;20634;-67
2023/05/09 04:01:31;;;;;;;6.60;5.10;;;15.70;99.90;;;15.95;nan;100760.59;4993366;28;20645;-67
2023/05/09 04:04:01;;;;;;;8.23;5.67;;;15.70;99.90;;;15.95;nan;100768.47;4993484;28;20638;-67
2023/05/09 04:06:28;;;;;;;9.17;5.70;;;15.70;99.90;;;15.96;nan;100762.25;4994081;28;20715;-67
2023/05/09 04:08:55;;;;;;;8.13;5.53;;;15.70;99.90;;;16.01;nan;100757.41;4993435;28;20642;-67
2023/05/09 04:11:22;;;;;;;9.30;5.63;;;15.80;99.90;;;16.04;nan;100759.75;4991585;28;20634;-66
2023/05/09 04:13:49;;;;;;;6.57;4.83;;;15.80;99.90;;;16.07;nan;100761.25;4992993;28;20648;-65
2023/05/09 04:16:16;;;;;;;8.73;6.00;;;15.80;99.90;;;16.11;nan;100757.38;4993769;28;20644;-68
2023/05/09 04:18:43;;;;;;;8.83;5.80;;;15.80;99.90;;;16.14;nan;100759.72;4992341;28;21279;-67
2023/05/09 04:21:10;;;;;;;10.17;6.30;;;15.80;99.90;;;16.16;nan;100757.78;4991529;28;20715;-67
2023/05/09 04:23:37;;;;;;;8.23;6.00;;;15.90;99.90;;;16.16;nan;100760.41;4987643;28;20637;-68
2023/05/09 04:26:05;;;;;;;6.70;5.10;;;15.90;99.90;;;16.17;nan;100759.44;4997944;28;20688;-68
2023/05/09 04:28:32;;;;;;;7.47;5.83;;;15.90;99.90;;;16.18;nan;100758.47;4994355;28;20665;-66
2023/05/09 04:30:59;;;;;;;8.80;5.80;;;15.90;99.90;;;16.20;nan;100764.41;4995688;28;20629;-68
2023/05/09 04:33:27;;;;;;;7.00;5.30;;;15.90;99.90;;;16.21;nan;100759.00;4996101;28;20683;-68
2023/05/09 04:35:56;;;;;;;6.50;4.60;;;15.90;99.90;;;16.24;nan;100765.78;5003183;28;20633;-68
2023/05/09 04:38:23;;;;;;;7.80;5.47;;;15.90;99.90;;;16.22;nan;100762.47;5005115;28;20738;-69
2023/05/09 04:40:53;;;;;;;6.10;5.20;;;16.00;99.90;;;16.22;nan;100754.56;4996470;28;21252;-68
2023/05/09 04:43:20;;;;;;;6.77;5.07;;;16.00;99.90;;;16.27;nan;100754.94;4996763;28;20636;-67
2023/05/09 04:45:47;;;;;;;7.60;4.50;;;16.00;99.90;;;16.28;nan;100754.00;5002853;28;20759;-67
2023/05/09 04:48:14;;;;;;;7.10;4.50;;;16.00;99.90;;;16.25;nan;100751.63;4993589;28;20657;-67
2023/05/09 04:50:47;;;;;;;7.47;4.87;;;16.00;99.90;;;16.24;nan;100752.63;4993228;28;20638;-67
2023/05/09 04:53:14;;;;;;;8.33;5.27;;;16.00;99.90;;;16.22;nan;100734.34;4993490;28;20668;-68
2023/05/09 04:55:41;;;;;;;11.60;4.63;;;16.00;99.90;;;16.27;nan;100733.91;4995697;28;20638;-68
2023/05/09 04:58:08;;;;;;;6.40;5.30;;;16.00;99.90;;;16.30;nan;100738.88;5008101;28;20665;-69
2023/05/09 05:00:35;;;;;;;8.03;5.33;;;16.00;99.90;;;16.34;nan;100734.97;4982305;28;20976;-67
2023/05/09 05:03:02;;;;;;;6.27;5.27;;;16.10;99.90;;;16.38;nan;100740.78;4983570;28;20639;-68
2023/05/09 05:05:29;;;;;;;8.57;5.40;;;16.10;99.90;;;16.42;nan;100737.72;4993291;28;21201;-69
2023/05/09 05:07:58;;;;;;;12.40;5.90;;;16.10;99.90;;;16.50;nan;100734.41;4991608;28;20661;-68
2023/05/09 05:10:25;;;;;;;10.10;6.67;;;16.20;99.90;;;16.56;nan;100728.56;4986710;28;20638;-68
2023/05/09 05:12:52;;;;;;;9.23;6.07;;;16.20;99.90;;;16.60;nan;100725.47;4992253;28;20638;-68
2023/05/09 05:15:19;;;;;;;9.07;5.90;;;16.30;99.90;;;16.65;nan;100723.22;4992911;28;20626;-68
2023/05/09 05:17:46;;;;;;;6.47;5.00;;;16.40;99.90;;;16.73;nan;100723.34;4990719;28;20662;-66
2023/05/09 05:20:13;;;;;;;6.60;5.27;;;16.40;99.90;;;16.79;nan;100728.00;4993821;28;20630;-69
2023/05/09 05:22:40;;;;;;;8.10;5.87;;;16.50;99.90;;;16.86;nan;100721.19;4991462;28;20630;-68
2023/05/09 05:25:07;;;;;;;7.87;6.07;;;16.60;99.90;;;16.92;nan;100722.38;4988684;28;20716;-68
2023/05/09 05:27:34;;;;;;;8.37;5.63;;;16.60;99.90;;;16.99;nan;100724.25;4992377;28;20666;-68
2023/05/09 05:30:01;;;;;;;10.17;5.30;;;16.70;99.90;;;17.06;nan;100727.13;4990231;28;21271;-68
2023/05/09 05:32:28;;;;;;;9.37;6.77;;;16.70;99.90;;;17.16;nan;100727.91;4985564;28;20631;-67
2023/05/09 05:34:56;;;;;;;7.73;5.97;;;16.80;99.90;;;17.23;nan;100720.22;4974858;28;20634;-67
2023/05/09 05:37:23;;;;;;;8.40;6.00;;;16.90;99.90;;;17.30;nan;100721.25;4992300;28;20712;-67
2023/05/09 05:39:50;;;;;;;7.50;5.70;;;17.00;99.90;;;17.35;nan;100713.75;4993508;28;20638;-67
2023/05/09 05:42:17;;;;;;;13.60;7.50;;;17.00;99.90;;;17.41;nan;100726.31;4986269;28;20654;-67
2023/05/09 05:44:44;;;;;;;8.00;5.90;;;17.10;99.90;;;17.47;nan;100720.44;4996214;28;20695;-67
2023/05/09 05:47:11;;;;;;;7.17;5.30;;;17.20;99.90;;;17.50;nan;100725.44;4987083;28;20848;-67
2023/05/09 05:49:38;;;;;;;6.23;4.87;;;17.20;99.90;;;17.59;nan;100725.34;4991653;28;21119;-67
2023/05/09 05:52:05;;;;;;;13.30;7.27;;;17.30;99.90;;;17.64;nan;100725.72;4991171;28;21182;-67
2023/05/09 05:54:32;;;;;;;11.13;7.00;;;17.30;99.90;;;17.70;nan;100729.56;4993402;28;20614;-67
2023/05/09 05:56:59;;;;;;;14.10;7.90;;;17.40;99.90;;;17.72;nan;100727.59;4992021;28;20743;-68
2023/05/09 05:59:26;;;;;;;8.87;6.63;;;17.40;99.90;;;17.74;nan;100718.53;4989209;28;21178;-68
2023/05/09 06:01:53;;;;;;;8.10;5.43;;;17.50;99.90;;;17.75;nan;100724.66;4991533;28;20700;-68
2023/05/09 06:04:20;;;;;;;8.47;5.47;;;17.50;99.90;;;17.79;nan;100726.00;4990141;28;20652;-68
2023/05/09 06:06:47;;;;;;;14.20;7.00;;;17.50;99.90;;;17.80;nan;100715.28;4989013;28;21363;-67
2023/05/09 06:09:14;;;;;;;12.20;6.50;;;17.50;99.90;;;17.77;nan;100712.97;4997411;28;20767;-68
2023/05/09 06:11:41;;;;;;;8.60;5.80;;;17.50;99.90;;;17.73;nan;100708.16;4996317;28;21170;-67
2023/05/09 06:14:08;;;;;;;8.53;5.53;;;17.50;99.90;;;17.72;nan;100709.13;4995284;28;21288;-69
2023/05/09 06:16:35;;;;;;;9.97;6.50;;;17.40;99.90;;;17.68;nan;100713.03;4989362;28;20670;-67
2023/05/09 06:19:02;;;;;;;10.60;6.10;;;17.40;99.90;;;17.68;nan;100710.41;4989925;28;21038;-68
2023/05/09 06:21:29;;;;;;;8.90;5.37;;;17.40;99.90;;;17.67;nan;100706.13;4993734;28;21290;-69
2023/05/09 06:23:55;;;;;;;15.07;7.20;;;17.40;99.90;;;17.70;nan;100701.34;4987185;28;20704;-68
2023/05/09 06:26:36;;;;;;;11.43;6.53;;;17.40;99.90;;;17.81;nan;100705.56;4994390;28;20672;-67
2023/05/09 06:29:05;;;;;;;13.87;6.87;;;17.50;99.90;;;17.89;nan;100702.16;4994874;28;21063;-67
2023/05/09 06:31:36;;;;;;;13.93;6.70;;;17.60;99.90;;;17.96;nan;100701.38;4990996;28;21182;-68
2023/05/09 06:34:04;;;;;;;10.97;6.40;;;17.70;99.90;;;17.96;nan;100706.66;4995168;28;21220;-68
2023/05/09 06:36:32;;;;;;;11.20;6.00;;;17.70;99.90;;;17.89;nan;100695.03;4990191;28;20639;-68
2023/05/09 06:38:59;;;;;;;11.17;6.03;;;17.60;99.90;;;17.83;nan;100696.50;4993173;28;20646;-68
2023/05/09 06:41:26;;;;;;;13.97;6.33;;;17.60;99.90;;;17.81;nan;100693.19;4993812;28;20646;-67
2023/05/09 06:43:53;;;;;;;13.63;6.40;;;17.50;99.90;;;17.81;nan;100692.34;4989091;28;20634;-68
2023/05/09 06:46:20;;;;;;;10.70;5.70;;;17.50;99.90;;;17.81;nan;100676.53;4991087;28;20658;-68
2023/05/09 06:48:47;;;;;;;9.87;6.33;;;17.50;99.90;;;17.83;nan;100674.56;4990294;28;20630;-67
2023/05/09 06:51:15;;;;;;;9.23;5.10;;;17.50;99.90;;;17.90;nan;100678.25;4992114;28;20657;-69
2023/05/09 06:53:42;;;;;;;14.10;7.60;;;17.60;99.90;;;17.89;nan;100670.47;4991252;28;20634;-66
2023/05/09 06:56:09;;;;;;;10.00;6.83;;;17.60;99.90;;;17.79;nan;100670.56;4977775;28;20627;-68
2023/05/09 06:58:36;;;;;;;8.00;4.57;;;17.50;99.90;;;17.82;nan;100675.56;4976244;28;21265;-66
2023/05/09 07:01:03;;;;;;;12.90;6.33;;;17.50;99.90;;;17.78;nan;100667.09;4976204;28;20634;-68
2023/05/09 07:03:30;;;;;;;9.07;5.83;;;17.50;99.90;;;17.80;nan;100669.59;4989270;28;20631;-68
2023/05/09 07:05:58;;;;;;;11.63;6.10;;;17.50;99.90;;;17.79;nan;100668.78;4986921;28;20692;-69
2023/05/09 07:08:25;;;;;;;16.23;6.30;;;17.50;99.90;;;17.84;nan;100671.75;4991822;28;20677;-68
2023/05/09 07:10:52;;;;;;;16.07;6.77;;;17.60;99.90;;;17.84;nan;100666.47;4991045;28;20684;-66
2023/05/09 07:13:19;;;;;;;17.40;7.40;;;17.60;99.90;;;17.86;nan;100663.69;4989918;28;20800;-67
2023/05/09 07:15:46;;;;;;;12.37;6.73;;;17.60;99.90;;;17.82;nan;100668.44;4990876;28;20645;-67
2023/05/09 07:18:13;;;;;;;7.37;3.70;;;17.50;99.90;;;17.78;nan;100661.00;4989541;28;21315;-68
2023/05/09 07:20:40;;;;;;;10.50;7.43;;;17.50;99.90;;;17.75;nan;100654.22;4983946;28;20684;-68
2023/05/09 07:23:07;;;;;;;11.87;7.00;;;17.50;99.90;;;17.84;nan;100655.09;4991023;28;20634;-68
2023/05/09 07:25:34;;;;;;;10.13;6.33;;;17.50;99.90;;;17.99;nan;100658.81;4990325;28;20634;-67
2023/05/09 07:28:01;;;;;;;11.20;5.97;;;17.60;99.90;;;18.22;nan;100652.00;4976849;28;20723;-69
2023/05/09 07:30:28;;;;;;;14.17;6.80;;;17.90;99.90;;;18.29;nan;100645.06;4978608;28;20630;-67
2023/05/09 07:32:55;;;;;;;8.70;5.67;;;18.00;99.90;;;18.44;nan;100643.50;4995270;28;20634;-67
2023/05/09 07:35:22;;;;;;;4.20;3.23;;;18.10;99.90;;;18.48;nan;100639.56;4981210;28;20704;-68
2023/05/09 07:37:49;;;;;;;14.20;6.80;;;18.20;99.90;;;18.37;nan;100631.94;4994186;28;20654;-69
2023/05/09 07:40:16;;;;;;;11.60;6.07;;;18.10;99.90;;;18.48;nan;100626.34;4995538;28;20625;-68
2023/05/09 07:42:48;;;;;;;14.40;7.57;;;18.20;99.90;;;18.71;nan;100629.22;4994720;28;20645;-68
2023/05/09 07:45:15;;;;;;;13.60;7.87;;;18.40;99.90;;;18.90;nan;100622.81;4994210;28;20613;-68
2023/05/09 07:47:43;;;;;;;10.17;5.60;;;18.60;99.90;;;19.53;nan;100621.16;4985741;28;20689;-68
2023/05/09 07:50:10;;;;;;;13.30;6.97;;;19.10;99.90;;;20.57;nan;100625.28;4994252;28;20659;-69
2023/05/09 07:52:37;;;;;;;11.20;6.53;;;20.10;99.90;;;21.23;nan;100624.66;4993851;28;20634;-67
2023/05/09 07:55:05;;;;;;;12.27;6.50;;;20.90;99.90;;;21.16;nan;100615.78;4986190;28;21182;-69
2023/05/09 07:57:32;;;;;;;11.27;6.60;;;20.90;99.90;;;21.10;nan;100608.53;4989605;28;21256;-68
2023/05/09 07:59:59;;;;;;;11.67;7.40;;;20.80;99.90;;;21.32;nan;100607.66;4990594;28;20743;-68
2023/05/09 08:02:26;;;;;;;9.13;5.67;;;21.00;99.90;;;21.42;nan;100604.78;4987541;28;20642;-67
2023/05/09 08:04:53;;;;;;;12.07;6.97;;;21.10;99.90;;;21.46;nan;100603.41;4983404;28;20654;-67
2023/05/09 08:07:20;;;;;;;12.37;6.63;;;21.20;99.90;;;21.40;nan;100596.16;4989386;28;21238;-67
2023/05/09 08:09:47;;;;;;;7.20;4.40;;;21.20;99.90;;;21.40;nan;100588.22;4986062;28;20634;-67
2023/05/09 08:12:14;;;;;;;10.43;6.73;;;21.10;99.90;;;21.55;nan;100586.41;4993315;28;20630;-70
2023/05/09 08:14:41;;;;;;;10.10;6.20;;;21.20;99.90;;;21.88;nan;100582.38;4992992;28;20684;-70
2023/05/09 08:17:08;;;;;;;14.17;7.70;;;21.60;99.90;;;21.94;nan;100583.47;4987603;28;20662;-65
2023/05/09 08:19:35;;;;;;;9.23;5.87;;;21.70;99.90;;;22.08;nan;100580.00;4975895;28;20638;-69
2023/05/09 08:22:03;;;;;;;8.87;5.50;;;21.80;99.90;;;22.29;nan;100572.06;4992454;28;20631;-68
2023/05/09 08:24:31;;;;;;;10.50;5.80;;;22.00;99.90;;;22.48;nan;100565.31;4993771;28;20634;-68
2023/05/09 08:26:58;;;;;;;13.50;6.30;;;22.10;99.90;;;22.41;nan;100573.22;4991943;28;20670;-68
2023/05/09 08:29:26;;;;;;;10.20;5.60;;;22.20;99.90;;;22.31;nan;100573.53;4983128;28;20642;-67
2023/05/09 08:31:53;;;;;;;7.20;5.23;;;22.10;99.90;;;22.28;nan;100565.09;4993516;28;20632;-69
2023/05/09 08:34:20;;;;;;;8.77;5.43;;;22.00;99.90;;;22.11;nan;100571.63;4993704;28;20681;-66
2023/05/09 08:36:47;;;;;;;15.73;7.70;;;21.90;99.90;;;21.84;nan;100557.22;4993264;28;21272;-69
2023/05/09 08:39:14;;;;;;;11.20;6.53;;;21.70;99.90;;;21.87;nan;100564.00;4993064;28;20634;-67
2023/05/09 08:41:42;;;;;;;8.47;6.10;;;21.60;99.90;;;21.82;nan;100566.34;4992457;28;20638;-68
2023/05/09 08:44:09;;;;;;;11.20;7.07;;;21.50;99.90;;;21.63;nan;100554.44;4990972;28;21072;-67
2023/05/09 08:46:40;;;;;;;13.27;7.50;;;21.30;99.90;;;21.42;nan;100549.84;4990897;28;20662;-68
2023/05/09 08:49:08;;;;;;;7.97;4.90;;;21.10;99.90;;;21.29;nan;100541.69;4990892;28;20627;-69
2023/05/09 08:51:35;;;;;;;9.50;5.97;;;21.00;99.90;;;21.22;nan;100546.06;4991534;28;20715;-67
2023/05/09 08:54:03;;;;;;;11.70;7.27;;;20.90;99.90;;;21.29;nan;100548.84;4988597;28;20634;-69
2023/05/09 08:56:30;;;;;;;10.80;6.60;;;20.90;99.90;;;21.37;nan;100544.25;4966907;28;20682;-66
2023/05/09 08:58:57;;;;;;;10.63;6.53;;;21.00;99.90;;;21.51;nan;100539.94;4992070;28;21071;-69
2023/05/09 09:01:27;;;;;;;9.77;5.90;;;21.20;99.90;;;21.59;nan;100537.22;4991171;28;20642;-67
2023/05/09 09:03:55;;;;;;;9.67;6.67;;;21.30;99.90;;;21.60;nan;100536.22;4976066;28;20732;-67
2023/05/09 09:06:24;;;;;;;11.70;6.40;;;21.30;99.90;;;21.54;nan;100540.44;4992525;28;20634;-68
2023/05/09 09:08:54;;;;;;;11.10;6.20;;;21.20;99.90;;;21.38;nan;100539.78;4971708;23;20703;-70
2023/05/09 09:11:22;;;;;;;8.93;4.97;;;21.10;99.90;;;21.21;nan;100539.09;4945547;29;20629;-67
2023/05/09 09:13:51;;;;;;;10.70;6.83;;;20.90;99.90;;;21.05;nan;100533.97;4947397;29;20632;-68
2023/05/09 09:16:21;;;;;;;13.07;5.77;;;20.80;99.90;;;20.92;nan;100532.88;4948759;29;20632;-68
2023/05/09 09:18:51;;;;;;;14.57;8.10;;;20.70;99.90;;;20.86;nan;100522.00;4946913;28;20676;-67
2023/05/09 09:21:19;;;;;;;15.60;7.60;;;20.50;99.90;;;20.84;nan;100512.56;4953840;28;20632;-66
2023/05/09 09:23:48;;;;;;;12.47;6.90;;;20.50;99.90;;;20.78;nan;100516.75;4953653;28;20632;-65
2023/05/09 09:26:15;;;;;;;8.70;6.17;;;20.50;99.90;;;20.88;nan;100513.88;4954884;28;20636;-66
2023/05/09 09:28:42;;;;;;;11.93;6.17;;;20.50;99.90;;;20.95;nan;100514.81;4952770;28;20742;-67
2023/05/09 09:31:24;;;;;;;16.30;7.47;;;20.60;99.90;;;21.05;nan;100510.09;4961639;28;20630;-65
2023/05/09 09:33:51;;;;;;;14.70;7.10;;;20.70;99.90;;;21.12;nan;100505.72;4951309;28;20636;-65
2023/05/09 09:36:29;;;;;;;14.23;7.37;;;20.80;99.90;;;21.19;nan;100496.00;4947119;28;20632;-65
2023/05/09 09:39:03;;;;;;;9.87;5.93;;;20.90;99.90;;;21.27;nan;100492.47;4956909;28;20674;-65
2023/05/09 09:41:35;;;;;;;14.60;7.17;;;20.90;99.90;;;21.26;nan;100496.94;4958904;28;20645;-65
2023/05/09 09:44:18;;;;;;;10.27;5.80;;;20.90;99.90;;;21.16;nan;100479.66;4954221;28;20649;-66
2023/05/09 09:46:53;;;;;;;11.97;5.70;;;20.80;99.90;;;21.07;nan;100492.16;4956528;28;20658;-65
2023/05/09 09:49:23;;;;;;;7.10;4.60;;;20.80;99.90;;;20.93;nan;100485.00;4959535;28;20637;-67
2023/05/09 09:51:56;;;;;;;9.23;4.70;;;20.70;99.90;;;20.88;nan;100476.72;4951477;28;20638;-66
2023/05/09 09:54:26;;;;;;;12.70;6.50;;;20.60;99.90;;;20.93;nan;100484.16;4941664;28;20702;-67
2023/05/09 09:56:53;;;;;;;9.80;5.93;;;20.60;99.90;;;21.07;nan;100473.59;4949030;29;20636;-67
2023/05/09 09:59:25;;;;;;;7.70;5.07;;;20.70;99.90;;;21.15;nan;100475.31;4952288;28;20710;-68
2023/05/09 10:01:58;;;;;;;11.77;5.57;;;20.80;99.90;;;21.21;nan;100467.47;4951782;28;20965;-66
2023/05/09 10:04:32;;;;;;;10.43;5.80;;;20.90;99.90;;;21.24;nan;100466.28;4957450;28;20643;-66
2023/05/09 10:07:05;;;;;;;13.47;5.83;;;20.90;99.90;;;21.41;nan;100465.09;4955032;28;20624;-64
2023/05/09 10:09:34;;;;;;;5.80;3.57;;;21.00;99.90;;;21.91;nan;100456.34;4969072;28;20632;-68
2023/05/09 10:12:05;;;;;;;12.00;6.40;;;21.40;99.90;;;22.51;nan;100450.63;4951967;28;20621;-68
2023/05/09 10:14:34;;;;;;;10.00;5.90;;;22.00;99.90;;;22.88;nan;100447.66;4968790;28;20662;-67
2023/05/09 10:17:03;;;;;;;8.73;5.17;;;22.50;99.90;;;23.43;nan;100447.63;4952897;29;21207;-67
2023/05/09 10:19:31;;;;;;;10.60;5.50;;;22.90;99.90;;;24.11;nan;100435.16;4952784;29;21188;-67
2023/05/09 10:22:08;;;;;;;5.47;4.50;;;23.60;99.90;;;24.51;nan;100426.19;4968413;28;20644;-67
2023/05/09 10:24:54;;;;;;;14.30;6.90;;;24.00;99.90;;;24.77;nan;100430.72;4968289;28;21208;-67
2023/05/09 10:27:27;;;;;;;11.30;6.37;;;24.30;99.90;;;24.89;nan;100423.72;4954274;28;20683;-67
2023/05/09 10:30:07;;;;;;;8.50;6.80;;;24.50;99.90;;;24.84;nan;100421.69;4954584;28;20648;-67